Time;durP1;ratioP1;P1;durP2;ratioP2;P2;SDS_P1;SDS_P2;PMS_P1;PMS_P2;Temp;Humidity;BMP_temperature;BMP_pressure;BME280_temperature;BME280_humidity;BME280_pressure;Samples;Min_cycle;Max_cycle;Signal;HPM_P1;HPM_P2
2024/01/17 00:00:29;;;;;;;0.90;0.90;;;-4.00;1.00;;;;;;5058562;28;20234;-82
2024/01/17 00:02:55;;;;;;;0.90;0.90;;;-4.00;1.00;;;;;;5059862;28;20262;-82
2024/01/17 00:05:22;;;;;;;0.90;0.90;;;-4.00;1.00;;;;;;5059437;28;20187;-83
2024/01/17 00:07:48;;;;;;;0.90;0.90;;;-4.00;1.00;;;;;;5057968;28;20199;-82
2024/01/17 00:10:16;;;;;;;0.90;0.90;;;-4.10;1.00;;;;;;5058410;28;20278;-82
2024/01/17 00:12:41;;;;;;;0.90;0.90;;;-4.10;1.00;;;;;;5058268;28;20183;-82
2024/01/17 00:15:07;;;;;;;0.90;0.90;;;-4.10;9.50;;;;;;5057727;28;20667;-80
2024/01/17 00:17:34;;;;;;;0.90;0.90;;;-4.10;1.00;;;;;;5057834;28;20268;-82
2024/01/17 00:20:00;;;;;;;1.00;1.00;;;-4.20;99.90;;;;;;5062127;28;20187;-82
2024/01/17 00:22:26;;;;;;;1.00;1.00;;;-4.20;99.90;;;;;;5056875;28;20194;-80
2024/01/17 00:24:52;;;;;;;0.93;0.93;;;-4.10;99.90;;;;;;5058434;28;20214;-80
2024/01/17 00:27:18;;;;;;;0.90;0.90;;;-4.10;99.90;;;;;;5057698;28;20230;-82
2024/01/17 00:29:45;;;;;;;0.97;0.97;;;-4.20;99.90;;;;;;5057800;28;20258;-80
2024/01/17 00:32:11;;;;;;;1.00;1.00;;;-4.10;1.00;;;;;;5057862;28;20657;-82
2024/01/17 00:34:36;;;;;;;0.90;0.90;;;-4.10;1.00;;;;;;5064338;28;20202;-81
2024/01/17 00:37:02;;;;;;;0.90;0.90;;;-4.10;1.00;;;;;;5065550;28;20237;-80
2024/01/17 00:39:27;;;;;;;1.00;1.00;;;-4.10;1.00;;;;;;5074505;28;20186;-80
2024/01/17 00:41:53;;;;;;;0.97;0.97;;;-4.00;1.00;;;;;;5061136;28;20198;-83
2024/01/17 00:44:21;;;;;;;1.00;1.00;;;-4.00;1.00;;;;;;5058635;28;20180;-82
2024/01/17 00:46:48;;;;;;;1.00;1.00;;;-4.00;1.00;;;;;;5057958;28;20261;-82
2024/01/17 00:49:13;;;;;;;1.00;1.00;;;-4.00;1.00;;;;;;5066460;28;20183;-81
2024/01/17 00:51:39;;;;;;;0.90;0.90;;;-4.00;1.00;;;;;;5062999;28;20352;-81
2024/01/17 00:54:05;;;;;;;0.97;0.97;;;-4.00;1.00;;;;;;5075530;28;20222;-81
2024/01/17 00:56:33;;;;;;;1.00;1.00;;;-4.00;1.00;;;;;;5074543;28;20206;-80
2024/01/17 00:58:59;;;;;;;1.00;1.00;;;-3.90;1.00;;;;;;5060686;28;20179;-82
2024/01/17 01:01:25;;;;;;;1.00;1.00;;;-3.90;1.00;;;;;;5058252;28;20256;-82
2024/01/17 01:03:51;;;;;;;1.13;1.13;;;-3.90;1.00;;;;;;5058022;28;20661;-82
2024/01/17 01:06:17;;;;;;;1.00;1.00;;;-3.90;6.20;;;;;;5062967;28;20198;-82
2024/01/17 01:08:43;;;;;;;1.10;1.10;;;-3.90;99.90;;;;;;5060259;28;20179;-81
2024/01/17 01:11:11;;;;;;;0.90;0.90;;;-3.90;99.90;;;;;;5062338;28;20178;-83
2024/01/17 01:13:38;;;;;;;1.00;1.00;;;-4.00;99.90;;;;;;5071480;28;20171;-81
2024/01/17 01:16:04;;;;;;;0.90;0.90;;;-4.00;1.00;;;;;;5073216;28;20187;-81
2024/01/17 01:18:30;;;;;;;1.00;1.00;;;-3.90;1.00;;;;;;5073042;28;20221;-82
2024/01/17 01:20:57;;;;;;;1.00;1.00;;;-3.80;1.00;;;;;;5072072;28;20270;-82
2024/01/17 01:23:24;;;;;;;1.00;1.00;;;-3.70;1.00;;;;;;5076644;28;20171;-82
2024/01/17 01:25:50;;;;;;;0.90;0.90;;;-3.70;1.00;;;;;;5075801;28;20178;-82
2024/01/17 01:28:16;;;;;;;1.00;1.00;;;-3.60;1.00;;;;;;5076303;28;20179;-83
2024/01/17 01:30:42;;;;;;;1.00;1.00;;;-3.50;1.00;;;;;;5076298;28;20178;-82
2024/01/17 01:33:07;;;;;;;1.00;1.00;;;-3.20;1.00;;;;;;5076484;28;20190;-82
2024/01/17 01:35:33;;;;;;;1.10;1.10;;;-3.30;1.00;;;;;;5075632;28;20179;-82
2024/01/17 01:37:59;;;;;;;0.90;0.90;;;-3.20;1.00;;;;;;5075436;28;20303;-82
2024/01/17 01:40:24;;;;;;;1.00;1.00;;;-3.20;99.90;;;;;;5076123;28;20239;-82
2024/01/17 01:42:50;;;;;;;1.00;1.00;;;-3.10;99.90;;;;;;5076164;28;20174;-82
2024/01/17 01:45:16;;;;;;;0.90;0.90;;;-3.10;88.40;;;;;;5074575;28;20252;-83
2024/01/17 01:47:42;;;;;;;0.97;0.97;;;-3.20;99.90;;;;;;5075476;28;20206;-84
2024/01/17 01:50:11;;;;;;;0.97;0.97;;;-3.10;99.90;;;;;;5075487;28;20213;-83
2024/01/17 01:52:40;;;;;;;1.00;1.00;;;-3.10;99.90;;;;;;5074450;28;20186;-83
2024/01/17 01:55:07;;;;;;;1.00;1.00;;;-3.10;1.00;;;;;;5072687;28;20186;-83
2024/01/17 01:57:36;;;;;;;0.90;0.90;;;-3.00;1.00;;;;;;5070163;28;20203;-82
2024/01/17 02:00:04;;;;;;;1.00;1.00;;;-3.00;1.00;;;;;;5053113;28;20179;-82
2024/01/17 02:02:31;;;;;;;1.00;1.00;;;-3.00;1.00;;;;;;5058764;28;20187;-82
2024/01/17 02:04:58;;;;;;;0.90;0.90;;;-3.00;1.00;;;;;;5058228;28;20180;-84
2024/01/17 02:07:27;;;;;;;0.90;0.90;;;-3.00;1.00;;;;;;5038745;28;20203;-82
2024/01/17 02:09:53;;;;;;;1.00;1.00;;;-2.90;1.00;;;;;;5038964;28;20172;-83
2024/01/17 02:12:19;;;;;;;0.93;0.93;;;-2.90;1.00;;;;;;5040016;28;20243;-83
2024/01/17 02:14:45;;;;;;;1.00;1.00;;;-2.80;1.00;;;;;;5043453;28;20183;-83
2024/01/17 02:17:11;;;;;;;1.00;1.00;;;-2.80;1.00;;;;;;5038645;28;20272;-84
2024/01/17 02:19:40;;;;;;;1.00;1.00;;;-2.70;1.00;;;;;;5038259;28;20255;-83
2024/01/17 02:22:05;;;;;;;1.00;1.00;;;-2.70;1.00;;;;;;5038291;28;20180;-84
2024/01/17 02:24:31;;;;;;;0.90;0.90;;;-2.70;1.00;;;;;;5037667;28;20677;-82
2024/01/17 02:26:59;;;;;;;1.00;1.00;;;-2.80;1.00;;;;;;5036531;28;20196;-82
2024/01/17 02:29:33;;;;;;;0.90;0.90;;;-3.10;99.90;;;;;;5038403;28;20533;-83
2024/01/17 02:31:59;;;;;;;1.00;1.00;;;-3.00;1.00;;;;;;5020020;28;20606;-84
2024/01/17 02:34:25;;;;;;;1.00;1.00;;;-2.90;12.00;;;;;;5038808;28;20200;-84
2024/01/17 02:36:50;;;;;;;1.03;1.03;;;-2.70;1.00;;;;;;5043387;28;20211;-84
2024/01/17 02:39:16;;;;;;;1.00;1.00;;;-2.70;99.90;;;;;;5046370;28;20414;-84
2024/01/17 02:41:45;;;;;;;0.97;0.97;;;-2.60;1.00;;;;;;5046492;28;20533;-83
2024/01/17 02:44:10;;;;;;;0.93;0.93;;;-2.50;1.00;;;;;;5058914;28;20172;-84
2024/01/17 02:46:36;;;;;;;1.00;1.00;;;-2.40;99.90;;;;;;5060387;28;20261;-84
2024/01/17 02:49:02;;;;;;;1.07;1.07;;;-2.30;99.90;;;;;;5060705;28;20194;-84
2024/01/17 02:51:28;;;;;;;0.80;0.80;;;-2.30;99.90;;;;;;5062220;28;20179;-83
2024/01/17 02:53:54;;;;;;;0.90;0.90;;;-2.40;1.00;;;;;;5060868;28;20253;-83
2024/01/17 02:56:19;;;;;;;1.00;1.00;;;-2.40;55.50;;;;;;5060891;28;20209;-83
2024/01/17 02:58:45;;;;;;;0.90;0.90;;;-2.40;99.90;;;;;;5058705;28;20175;-83
2024/01/17 03:01:13;;;;;;;1.00;1.00;;;-2.40;99.90;;;;;;5062284;28;20237;-84
2024/01/17 03:03:40;;;;;;;0.93;0.93;;;-2.40;99.90;;;;;;5062401;28;20171;-84
2024/01/17 03:06:05;;;;;;;1.10;1.10;;;-2.50;1.00;;;;;;5058973;28;20222;-84
2024/01/17 03:08:31;;;;;;;1.00;1.00;;;-2.50;1.00;;;;;;5059622;28;20176;-84
2024/01/17 03:10:57;;;;;;;1.10;1.10;;;-2.70;1.00;;;;;;5057903;28;20171;-83
2024/01/17 03:13:22;;;;;;;1.00;1.00;;;-2.90;1.00;;;;;;5057289;28;20194;-84
2024/01/17 03:15:48;;;;;;;1.10;1.10;;;-2.90;99.90;;;;;;5057941;28;20171;-83
2024/01/17 03:18:13;;;;;;;1.00;1.00;;;-2.90;99.90;;;;;;5058197;28;20548;-82
2024/01/17 03:20:40;;;;;;;0.90;0.90;;;-2.80;99.90;;;;;;5069105;28;20167;-81
2024/01/17 03:23:06;;;;;;;0.90;0.90;;;-2.70;99.90;;;;;;5076698;28;20196;-80
2024/01/17 03:25:32;;;;;;;0.90;0.90;;;-2.70;99.90;;;;;;5077484;28;20171;-81
2024/01/17 03:27:57;;;;;;;0.90;0.90;;;-2.60;99.90;;;;;;5077001;28;20197;-82
2024/01/17 03:30:23;;;;;;;1.00;1.00;;;-2.60;99.90;;;;;;5077705;28;20181;-81
2024/01/17 03:32:50;;;;;;;1.00;1.00;;;-2.60;99.90;;;;;;5076153;28;20194;-83
2024/01/17 03:35:15;;;;;;;0.97;0.97;;;-2.50;99.90;;;;;;5064850;28;20202;-82
2024/01/17 03:37:41;;;;;;;1.00;1.00;;;-2.50;99.90;;;;;;5056995;28;20218;-82
2024/01/17 03:40:07;;;;;;;0.90;0.90;;;-2.40;99.90;;;;;;5058163;28;20183;-84
2024/01/17 03:42:33;;;;;;;0.90;0.90;;;-2.40;99.90;;;;;;5057985;28;20179;-83
2024/01/17 03:44:58;;;;;;;0.90;0.90;;;-2.40;99.90;;;;;;5057301;28;20175;-84
2024/01/17 03:47:24;;;;;;;1.00;1.00;;;-2.30;99.90;;;;;;5057071;28;20572;-85
2024/01/17 03:49:49;;;;;;;1.00;1.00;;;-2.30;99.90;;;;;;5055413;28;20203;-83
2024/01/17 03:52:16;;;;;;;1.03;1.03;;;-2.20;99.90;;;;;;5057404;28;20175;-84
2024/01/17 03:54:41;;;;;;;0.87;0.87;;;-2.10;99.90;;;;;;5057980;28;20576;-83
2024/01/17 03:57:08;;;;;;;0.93;0.93;;;-2.10;99.90;;;;;;5057092;28;20226;-83
2024/01/17 03:59:34;;;;;;;1.00;1.00;;;-2.00;99.90;;;;;;5057652;28;20254;-83
2024/01/17 04:02:00;;;;;;;1.00;1.00;;;-2.00;99.90;;;;;;5058435;28;20175;-83
2024/01/17 04:04:25;;;;;;;0.90;0.90;;;-2.00;99.90;;;;;;5060984;28;20171;-83
2024/01/17 04:06:51;;;;;;;0.90;0.90;;;-2.00;99.90;;;;;;5057759;28;20293;-84
2024/01/17 04:09:17;;;;;;;1.00;1.00;;;-2.10;99.90;;;;;;5058612;28;20190;-84
2024/01/17 04:11:42;;;;;;;1.00;1.00;;;-2.10;1.00;;;;;;5057304;28;20175;-84
2024/01/17 04:14:08;;;;;;;1.00;1.00;;;-2.20;1.00;;;;;;5058066;28;20167;-83
2024/01/17 04:16:36;;;;;;;1.00;1.00;;;-2.20;1.00;;;;;;5057994;28;20202;-84
2024/01/17 04:19:02;;;;;;;0.90;0.90;;;-2.20;1.00;;;;;;5058675;28;20590;-83
2024/01/17 04:21:28;;;;;;;0.90;0.90;;;-2.20;1.00;;;;;;5058408;28;20195;-81
2024/01/17 04:23:53;;;;;;;0.80;0.80;;;-2.40;1.00;;;;;;5058293;28;20205;-84
2024/01/17 04:26:21;;;;;;;1.00;1.00;;;-2.40;1.00;;;;;;5058107;28;20229;-84
2024/01/17 04:28:47;;;;;;;1.03;1.03;;;-2.30;1.00;;;;;;5057295;28;20175;-83
2024/01/17 04:31:24;;;;;;;1.00;1.00;;;-2.30;1.00;;;;;;5058524;28;20287;-84
2024/01/17 04:33:51;;;;;;;1.00;1.00;;;-2.30;1.00;;;;;;5064043;28;20530;-83
2024/01/17 04:36:16;;;;;;;1.00;1.00;;;-2.30;1.00;;;;;;5058424;28;20213;-84
2024/01/17 04:38:43;;;;;;;1.00;1.00;;;-2.40;1.00;;;;;;5058678;28;20696;-82
2024/01/17 04:41:13;;;;;;;0.90;0.90;;;-2.40;1.00;;;;;;5059216;28;20637;-84
2024/01/17 04:43:40;;;;;;;1.00;1.00;;;-2.40;1.00;;;;;;5072519;28;20175;-82
2024/01/17 04:46:08;;;;;;;1.00;1.00;;;-2.40;1.00;;;;;;5073531;28;20844;-82
2024/01/17 04:48:35;;;;;;;1.00;1.00;;;-2.40;1.00;;;;;;5073708;28;20175;-82
2024/01/17 04:51:04;;;;;;;0.90;0.90;;;-2.40;1.00;;;;;;5075915;28;20218;-82
2024/01/17 04:53:31;;;;;;;0.90;0.90;;;-2.40;1.00;;;;;;5074336;28;20235;-82
2024/01/17 04:55:57;;;;;;;1.00;1.00;;;-2.30;1.00;;;;;;5073567;28;20179;-83
2024/01/17 04:58:22;;;;;;;1.00;1.00;;;-2.20;1.00;;;;;;5075060;28;20260;-83
2024/01/17 05:00:48;;;;;;;0.90;0.90;;;-2.10;1.00;;;;;;5044324;28;20185;-84
2024/01/17 05:03:15;;;;;;;1.00;1.00;;;-2.00;1.00;;;;;;5064153;28;20198;-84
2024/01/17 05:05:43;;;;;;;0.90;0.90;;;-1.90;1.00;;;;;;5060157;28;20179;-84
2024/01/17 05:08:10;;;;;;;0.90;0.90;;;-1.70;1.00;;;;;;5060136;28;20541;-83
2024/01/17 05:10:35;;;;;;;0.90;0.90;;;-1.60;1.00;;;;;;5060295;28;20172;-83
2024/01/17 05:13:01;;;;;;;0.90;0.90;;;-1.50;1.00;;;;;;5042764;28;20183;-84
2024/01/17 05:15:26;;;;;;;1.00;1.00;;;-1.40;1.00;;;;;;5062020;28;20238;-84
2024/01/17 05:17:52;;;;;;;0.90;0.90;;;-1.40;1.00;;;;;;5059854;28;20219;-84
2024/01/17 05:20:18;;;;;;;0.83;0.83;;;-1.40;1.00;;;;;;5060190;28;20320;-83
2024/01/17 05:22:43;;;;;;;0.90;0.90;;;-1.40;1.00;;;;;;5059145;28;20193;-84
2024/01/17 05:25:11;;;;;;;0.90;0.90;;;-1.30;1.00;;;;;;5059352;28;20183;-83
2024/01/17 05:27:37;;;;;;;0.90;0.90;;;-1.30;1.00;;;;;;5060546;28;20229;-84
2024/01/17 05:30:10;;;;;;;0.90;0.90;;;-1.40;1.00;;;;;;5060158;28;20269;-85
2024/01/17 05:32:38;;;;;;;0.90;0.90;;;-1.40;1.00;;;;;;5061152;28;20194;-84
2024/01/17 05:35:06;;;;;;;0.97;0.97;;;-1.50;1.00;;;;;;5060149;28;20183;-85
2024/01/17 05:37:31;;;;;;;0.90;0.90;;;-1.50;1.00;;;;;;5060557;28;20250;-83
2024/01/17 05:39:57;;;;;;;0.80;0.80;;;-1.50;1.00;;;;;;5060592;28;20163;-84
2024/01/17 05:42:22;;;;;;;0.90;0.90;;;-1.40;1.00;;;;;;5060303;28;20190;-83
2024/01/17 05:44:48;;;;;;;1.00;1.00;;;-1.30;1.00;;;;;;5060162;28;20236;-83
2024/01/17 05:47:14;;;;;;;0.90;0.90;;;-1.20;1.00;;;;;;5060308;28;20223;-83
2024/01/17 05:49:40;;;;;;;0.90;0.90;;;-1.20;1.00;;;;;;5060586;28;20168;-83
2024/01/17 05:52:05;;;;;;;0.90;0.90;;;-1.10;1.00;;;;;;5061158;28;20561;-83
2024/01/17 05:54:31;;;;;;;0.90;0.90;;;-0.80;1.00;;;;;;5060918;28;20178;-83
2024/01/17 05:56:56;;;;;;;0.90;0.90;;;-1.00;1.00;;;;;;5060779;28;20333;-83
2024/01/17 05:59:22;;;;;;;0.90;0.90;;;-1.00;1.00;;;;;;5061509;28;20183;-83
2024/01/17 06:01:47;;;;;;;0.93;0.93;;;-0.90;1.00;;;;;;5061438;28;20179;-83
2024/01/17 06:04:13;;;;;;;0.97;0.97;;;-0.90;1.00;;;;;;5062555;28;20194;-82
2024/01/17 06:06:40;;;;;;;0.90;0.90;;;-0.80;1.00;;;;;;5072510;28;20266;-82
2024/01/17 06:09:07;;;;;;;0.90;0.90;;;-0.80;1.00;;;;;;5077817;28;20187;-81
2024/01/17 06:11:33;;;;;;;0.90;0.90;;;-0.90;1.00;;;;;;5066556;28;20179;-83
2024/01/17 06:13:59;;;;;;;0.90;0.90;;;-0.90;1.00;;;;;;5062161;28;20171;-83
2024/01/17 06:16:25;;;;;;;1.00;1.00;;;-0.90;1.00;;;;;;5061584;28;20276;-82
2024/01/17 06:18:54;;;;;;;1.10;1.10;;;-0.80;1.00;;;;;;5062279;28;20167;-83
2024/01/17 06:21:20;;;;;;;1.00;1.00;;;-0.80;1.00;;;;;;5062152;28;20178;-83
2024/01/17 06:23:46;;;;;;;0.90;0.90;;;-0.70;1.00;;;;;;5063138;28;20183;-84
2024/01/17 06:26:11;;;;;;;0.90;0.90;;;-0.60;1.00;;;;;;5064573;28;20199;-82
2024/01/17 06:28:37;;;;;;;1.00;1.00;;;-0.60;1.00;;;;;;5075117;28;20175;-83
2024/01/17 06:31:04;;;;;;;0.90;0.90;;;-0.60;1.00;;;;;;5058791;28;20175;-84
2024/01/17 06:33:29;;;;;;;0.93;0.93;;;-0.60;1.00;;;;;;5059742;28;20528;-84
2024/01/17 06:35:57;;;;;;;0.90;0.90;;;-0.50;1.00;;;;;;5059688;28;20172;-83
2024/01/17 06:38:23;;;;;;;0.90;0.90;;;-0.60;1.00;;;;;;5041372;28;20237;-84
2024/01/17 06:40:49;;;;;;;0.80;0.80;;;-0.60;1.00;;;;;;5044308;28;20625;-84
2024/01/17 06:43:15;;;;;;;0.80;0.80;;;-0.60;1.00;;;;;;5059983;28;20532;-84
2024/01/17 06:45:40;;;;;;;0.90;0.90;;;-0.50;1.00;;;;;;5059594;28;20171;-84
2024/01/17 06:48:06;;;;;;;0.90;0.90;;;-0.40;1.00;;;;;;5059571;28;20179;-84
2024/01/17 06:50:31;;;;;;;0.90;0.90;;;-0.50;1.00;;;;;;5061535;28;20179;-82
2024/01/17 06:52:57;;;;;;;0.90;0.90;;;-0.40;1.00;;;;;;5059650;28;20197;-84
2024/01/17 06:55:22;;;;;;;0.80;0.80;;;-0.40;1.00;;;;;;5059216;28;20190;-85
2024/01/17 06:57:48;;;;;;;0.90;0.90;;;-0.40;1.00;;;;;;5059838;28;20215;-85
2024/01/17 07:00:14;;;;;;;0.90;0.90;;;-0.40;1.00;;;;;;5059526;28;20187;-85
2024/01/17 07:02:40;;;;;;;0.90;0.90;;;-0.40;1.00;;;;;;5060108;28;20663;-84
2024/01/17 07:05:06;;;;;;;0.80;0.80;;;-0.40;1.00;;;;;;5058653;28;20183;-84
2024/01/17 07:07:32;;;;;;;0.90;0.90;;;-0.40;1.00;;;;;;5068126;28;20249;-84
2024/01/17 07:09:57;;;;;;;0.90;0.90;;;-0.40;1.00;;;;;;5068928;28;20171;-86
2024/01/17 07:12:23;;;;;;;0.90;0.90;;;-0.40;1.00;;;;;;5061341;28;20198;-83
2024/01/17 07:14:49;;;;;;;0.90;0.90;;;-0.30;1.00;;;;;;5057393;28;20175;-83
2024/01/17 07:17:15;;;;;;;0.90;0.90;;;-0.30;1.00;;;;;;5055404;28;20352;-84
2024/01/17 07:19:43;;;;;;;0.90;0.90;;;-0.20;1.00;;;;;;5056084;28;20202;-84
2024/01/17 07:22:09;;;;;;;0.90;0.90;;;-0.20;1.00;;;;;;5055471;28;20171;-86
2024/01/17 07:24:35;;;;;;;0.90;0.90;;;-0.20;1.00;;;;;;5039543;28;20507;-83
2024/01/17 07:27:00;;;;;;;0.80;0.80;;;-0.10;1.00;;;;;;5062732;28;20226;-81
2024/01/17 07:29:26;;;;;;;0.97;0.97;;;-0.10;1.00;;;;;;5054385;28;20187;-82
2024/01/17 07:31:52;;;;;;;0.90;0.90;;;0.00;1.00;;;;;;5072398;28;20640;-82
2024/01/17 07:34:18;;;;;;;0.80;0.80;;;0.00;1.00;;;;;;5044151;28;20175;-83
2024/01/17 07:36:44;;;;;;;0.90;0.90;;;0.10;1.00;;;;;;5061313;28;20254;-84
2024/01/17 07:39:10;;;;;;;0.90;0.90;;;0.20;1.00;;;;;;5057153;28;20191;-83
2024/01/17 07:41:36;;;;;;;0.80;0.80;;;0.20;1.00;;;;;;5041407;28;20250;-85
2024/01/17 07:44:02;;;;;;;0.90;0.90;;;0.20;1.00;;;;;;5067469;28;20183;-84
2024/01/17 07:46:27;;;;;;;0.80;0.80;;;0.30;1.00;;;;;;5061048;28;20290;-82
2024/01/17 07:48:54;;;;;;;0.90;0.90;;;0.40;1.00;;;;;;5054164;28;20198;-83
2024/01/17 07:51:19;;;;;;;0.70;0.70;;;0.50;1.00;;;;;;5043666;28;20238;-84
2024/01/17 07:53:45;;;;;;;0.90;0.90;;;0.50;1.00;;;;;;5055534;28;20259;-83
2024/01/17 07:56:10;;;;;;;1.00;1.00;;;0.60;1.00;;;;;;5055076;28;20267;-83
2024/01/17 07:58:36;;;;;;;0.80;0.80;;;0.70;1.00;;;;;;5056588;28;20219;-84
2024/01/17 08:01:02;;;;;;;0.90;0.90;;;0.70;1.00;;;;;;5058447;28;20191;-84
2024/01/17 08:03:28;;;;;;;0.90;0.90;;;0.80;1.00;;;;;;5058718;28;20185;-83
2024/01/17 08:05:53;;;;;;;0.90;0.90;;;0.80;1.00;;;;;;5055427;28;20179;-81
2024/01/17 08:08:19;;;;;;;0.80;0.80;;;0.90;1.00;;;;;;5058689;28;20203;-81
2024/01/17 08:10:44;;;;;;;0.87;0.87;;;0.90;1.00;;;;;;5057816;28;20723;-82
2024/01/17 08:13:11;;;;;;;0.83;0.83;;;1.00;1.00;;;;;;5057932;28;20700;-81
2024/01/17 08:15:36;;;;;;;0.90;0.90;;;1.10;1.00;;;;;;5059262;28;20187;-81
2024/01/17 08:18:03;;;;;;;0.90;0.90;;;1.20;1.00;;;;;;5059311;28;20199;-81
2024/01/17 08:20:28;;;;;;;0.83;0.83;;;1.30;1.00;;;;;;5043983;28;20216;-80
2024/01/17 08:22:54;;;;;;;0.80;0.80;;;1.30;1.00;;;;;;5060868;28;20645;-81
2024/01/17 08:25:20;;;;;;;0.90;0.90;;;1.30;1.00;;;;;;5060928;28;20175;-81
2024/01/17 08:27:45;;;;;;;0.87;0.87;;;1.40;1.00;;;;;;5066449;28;20193;-82
2024/01/17 08:30:12;;;;;;;0.90;0.90;;;1.40;1.00;;;;;;5060326;28;20179;-81
2024/01/17 08:32:37;;;;;;;1.00;1.00;;;1.50;1.00;;;;;;5068180;28;20171;-80
2024/01/17 08:35:03;;;;;;;0.90;0.90;;;1.50;1.00;;;;;;5068042;28;20544;-80
2024/01/17 08:37:29;;;;;;;0.80;0.80;;;1.60;1.00;;;;;;5062984;28;20620;-80
2024/01/17 08:39:55;;;;;;;0.90;0.90;;;1.70;1.00;;;;;;5064826;28;20285;-81
2024/01/17 08:42:21;;;;;;;0.93;0.93;;;1.70;1.00;;;;;;5067453;28;20175;-82
2024/01/17 08:44:46;;;;;;;0.90;0.90;;;1.70;1.00;;;;;;5067384;28;20194;-82
2024/01/17 08:47:12;;;;;;;0.80;0.80;;;1.70;1.00;;;;;;5071911;28;20207;-80
2024/01/17 08:49:40;;;;;;;0.90;0.90;;;1.70;1.00;;;;;;5079684;28;20179;-81
2024/01/17 08:52:07;;;;;;;0.80;0.80;;;1.70;1.00;;;;;;5077418;28;20724;-83
2024/01/17 08:54:34;;;;;;;0.90;0.90;;;1.70;1.00;;;;;;5071245;28;20240;-80
2024/01/17 08:57:01;;;;;;;0.90;0.90;;;1.70;1.00;;;;;;5077298;28;20207;-81
2024/01/17 08:59:28;;;;;;;0.90;0.90;;;1.70;1.00;;;;;;5077310;28;20186;-80
2024/01/17 09:01:56;;;;;;;0.80;0.80;;;1.70;1.00;;;;;;5059990;28;20171;-80
2024/01/17 09:04:22;;;;;;;0.90;0.90;;;1.70;1.00;;;;;;5077344;28;20163;-82
2024/01/17 09:06:47;;;;;;;1.00;1.00;;;1.70;1.00;;;;;;5066198;28;20201;-86
2024/01/17 09:09:14;;;;;;;0.80;0.80;;;1.70;1.00;;;;;;5062310;28;20203;-83
2024/01/17 09:11:40;;;;;;;0.83;0.83;;;1.80;1.00;;;;;;5061844;28;20201;-82
2024/01/17 09:14:06;;;;;;;0.80;0.80;;;1.90;1.00;;;;;;5062163;28;20217;-83
2024/01/17 09:16:33;;;;;;;0.90;0.90;;;1.90;1.00;;;;;;5061872;28;20263;-82
2024/01/17 09:18:59;;;;;;;0.90;0.90;;;2.00;1.00;;;;;;5060878;28;20175;-83
2024/01/17 09:21:25;;;;;;;0.90;0.90;;;2.10;1.00;;;;;;5043996;28;20175;-84
2024/01/17 09:23:51;;;;;;;0.87;0.87;;;2.10;1.00;;;;;;5069546;28;20191;-83
2024/01/17 09:26:16;;;;;;;0.90;0.90;;;2.20;1.00;;;;;;5062295;28;20240;-84
2024/01/17 09:28:42;;;;;;;0.90;0.90;;;2.20;1.00;;;;;;5062212;28;20179;-85
2024/01/17 09:31:08;;;;;;;0.90;0.90;;;2.20;1.00;;;;;;5062566;28;20190;-84
2024/01/17 09:33:35;;;;;;;0.90;0.90;;;2.20;1.00;;;;;;5062121;28;20175;-84
2024/01/17 09:36:00;;;;;;;0.90;0.90;;;2.30;1.00;;;;;;5060493;28;20282;-86
2024/01/17 09:38:26;;;;;;;0.90;0.90;;;2.30;1.00;;;;;;5042415;28;20265;-85
2024/01/17 09:40:52;;;;;;;1.00;1.00;;;2.30;1.00;;;;;;5061223;28;20692;-84
2024/01/17 09:43:18;;;;;;;0.90;0.90;;;2.20;1.00;;;;;;5059766;28;20173;-85
2024/01/17 09:45:44;;;;;;;1.00;1.00;;;2.20;1.00;;;;;;5060639;28;20275;-85
2024/01/17 09:48:12;;;;;;;0.90;0.90;;;2.40;1.00;;;;;;5042371;28;20199;-85
2024/01/17 09:50:38;;;;;;;0.87;0.87;;;2.30;1.00;;;;;;5059748;28;20171;-84
2024/01/17 09:53:10;;;;;;;0.80;0.80;;;2.30;1.00;;;;;;5061304;28;20175;-84
2024/01/17 09:55:38;;;;;;;0.90;0.90;;;2.40;1.00;;;;;;5043258;28;20564;-85
2024/01/17 09:58:05;;;;;;;0.90;0.90;;;2.50;1.00;;;;;;5060362;28;20233;-84
2024/01/17 10:00:32;;;;;;;1.00;1.00;;;2.60;1.00;;;;;;5062475;28;20248;-85
2024/01/17 10:02:59;;;;;;;0.90;0.90;;;2.60;1.00;;;;;;5062040;28;20239;-84
2024/01/17 10:05:30;;;;;;;0.90;0.90;;;2.70;1.00;;;;;;5064439;28;20175;-85
2024/01/17 10:07:58;;;;;;;0.90;0.90;;;2.70;1.00;;;;;;5060290;28;20191;-85
2024/01/17 10:10:24;;;;;;;0.90;0.90;;;2.80;1.00;;;;;;5060619;28;20231;-85
2024/01/17 10:12:51;;;;;;;0.90;0.90;;;2.80;1.00;;;;;;5063762;28;20179;-84
2024/01/17 10:15:17;;;;;;;0.90;0.90;;;2.80;1.00;;;;;;5070585;28;20221;-82
2024/01/17 10:17:43;;;;;;;0.90;0.90;;;2.80;1.00;;;;;;5059414;28;20253;-86
2024/01/17 10:20:09;;;;;;;0.80;0.80;;;2.70;1.00;;;;;;5062312;28;20179;-85
2024/01/17 10:22:35;;;;;;;0.90;0.90;;;2.70;1.00;;;;;;5063294;28;20201;-84
2024/01/17 10:25:05;;;;;;;0.83;0.83;;;2.70;1.00;;;;;;5059009;28;20202;-85
2024/01/17 10:27:30;;;;;;;0.80;0.80;;;2.80;1.00;;;;;;5060037;28;20196;-85
2024/01/17 10:29:56;;;;;;;0.80;0.80;;;2.80;1.00;;;;;;5059965;28;20210;-86
2024/01/17 10:32:22;;;;;;;0.90;0.90;;;2.80;1.00;;;;;;5062976;28;20171;-86
2024/01/17 10:34:48;;;;;;;0.90;0.90;;;2.80;1.00;;;;;;5062821;28;20182;-84
2024/01/17 10:37:16;;;;;;;0.90;0.90;;;2.80;1.00;;;;;;5035979;28;20261;-86
2024/01/17 10:39:42;;;;;;;0.83;0.83;;;2.70;1.00;;;;;;5042018;28;20175;-85
2024/01/17 10:42:19;;;;;;;0.80;0.80;;;2.70;1.00;;;;;;5059201;28;20217;-82
2024/01/17 10:44:46;;;;;;;0.90;0.90;;;2.80;1.00;;;;;;5065987;28;20183;-83
2024/01/17 10:47:11;;;;;;;0.90;0.90;;;2.90;1.00;;;;;;5067562;28;20214;-83
2024/01/17 10:49:38;;;;;;;0.80;0.80;;;2.80;1.00;;;;;;5068850;28;20184;-83
2024/01/17 10:52:11;;;;;;;0.90;0.90;;;2.90;1.00;;;;;;5068787;28;20186;-84
2024/01/17 10:54:40;;;;;;;0.90;0.90;;;2.90;1.00;;;;;;5069843;28;20183;-83
2024/01/17 10:57:09;;;;;;;0.80;0.80;;;2.90;1.00;;;;;;5067667;28;20215;-83
2024/01/17 10:59:36;;;;;;;1.00;1.00;;;2.90;1.00;;;;;;5068449;28;20179;-83
2024/01/17 11:02:04;;;;;;;0.80;0.80;;;2.90;1.00;;;;;;5051742;28;20183;-83
2024/01/17 11:04:30;;;;;;;0.80;0.80;;;3.00;1.00;;;;;;5067651;28;20661;-85
2024/01/17 11:06:58;;;;;;;0.90;0.90;;;3.00;1.00;;;;;;5063033;28;20189;-85
2024/01/17 11:09:26;;;;;;;0.80;0.80;;;3.00;1.00;;;;;;5063310;28;20250;-84
2024/01/17 11:11:52;;;;;;;0.90;0.90;;;3.20;1.00;;;;;;5041085;28;20641;-85
2024/01/17 11:14:20;;;;;;;0.80;0.80;;;2.90;1.00;;;;;;5053022;28;20209;-85
2024/01/17 11:16:48;;;;;;;0.90;0.90;;;2.90;1.00;;;;;;5073422;28;20187;-84
2024/01/17 11:19:15;;;;;;;0.80;0.80;;;3.00;1.00;;;;;;5047171;28;20614;-85
2024/01/17 11:21:42;;;;;;;0.80;0.80;;;3.00;1.00;;;;;;5057897;28;20239;-84
2024/01/17 11:24:39;;;;;;;0.80;0.80;;;3.00;1.00;;;;;;5038773;28;20189;-86
2024/01/17 11:27:17;;;;;;;0.90;0.90;;;3.00;1.00;;;;;;5037653;28;20194;-86
2024/01/17 11:29:59;;;;;;;0.90;0.90;;;3.10;1.00;;;;;;5055130;28;20183;-85
2024/01/17 11:32:37;;;;;;;0.90;0.90;;;3.20;1.00;;;;;;5034834;28;20266;-85
2024/01/17 11:35:03;;;;;;;0.90;0.90;;;3.20;1.00;;;;;;5054691;28;20167;-86
2024/01/17 11:37:34;;;;;;;0.97;0.97;;;3.30;1.00;;;;;;5054403;28;20249;-85
2024/01/17 11:40:01;;;;;;;0.90;0.90;;;3.30;1.00;;;;;;5035039;28;20588;-85
2024/01/17 11:42:26;;;;;;;0.80;0.80;;;3.20;1.00;;;;;;5055060;28;20178;-86
2024/01/17 11:44:53;;;;;;;0.80;0.80;;;3.60;1.00;;;;;;5037643;28;20274;-85
2024/01/17 11:47:22;;;;;;;0.80;0.80;;;3.30;1.00;;;;;;5054239;28;20186;-85
2024/01/17 11:49:48;;;;;;;0.87;0.87;;;3.30;1.00;;;;;;5055911;28;20175;-83
2024/01/17 11:52:35;;;;;;;0.90;0.90;;;3.50;1.00;;;;;;5059004;28;20185;-84
2024/01/17 11:55:01;;;;;;;0.90;0.90;;;3.60;1.00;;;;;;5041479;28;20167;-86
2024/01/17 11:57:32;;;;;;;0.80;0.80;;;3.70;1.00;;;;;;5056725;28;20424;-85
2024/01/17 12:00:12;;;;;;;0.97;0.97;;;3.80;1.00;;;;;;5061063;28;20209;-83
2024/01/17 12:02:43;;;;;;;0.90;0.90;;;3.90;1.00;;;;;;5046493;28;20285;-85
2024/01/17 12:05:10;;;;;;;0.90;0.90;;;4.00;1.00;;;;;;5062210;28;20179;-85
2024/01/17 12:07:39;;;;;;;0.80;0.80;;;4.00;1.00;;;;;;5040364;28;20681;-85
2024/01/17 12:10:12;;;;;;;0.80;0.80;;;4.10;1.00;;;;;;5057940;28;20234;-85
2024/01/17 12:12:40;;;;;;;0.83;0.83;;;4.20;1.00;;;;;;5062023;28;20171;-84
2024/01/17 12:15:07;;;;;;;0.70;0.70;;;4.20;1.00;;;;;;5073603;28;20258;-82
2024/01/17 12:17:33;;;;;;;0.87;0.87;;;4.30;1.00;;;;;;5056787;28;20218;-80
2024/01/17 12:20:00;;;;;;;0.70;0.70;;;4.30;1.00;;;;;;5062850;28;20175;-84
2024/01/17 12:22:26;;;;;;;0.70;0.70;;;4.40;1.00;;;;;;5057079;28;20171;-84
2024/01/17 12:24:54;;;;;;;0.80;0.80;;;4.40;1.00;;;;;;5055512;28;20519;-84
2024/01/17 12:27:19;;;;;;;0.80;0.80;;;4.50;1.00;;;;;;5055881;28;20191;-84
2024/01/17 12:29:47;;;;;;;0.80;0.80;;;4.40;1.00;;;;;;5054960;28;20202;-83
2024/01/17 12:32:13;;;;;;;0.80;0.80;;;4.40;1.00;;;;;;5056628;28;20648;-83
2024/01/17 12:34:41;;;;;;;0.70;0.70;;;4.40;1.00;;;;;;5056340;28;20182;-83
2024/01/17 12:37:07;;;;;;;0.80;0.80;;;4.40;1.00;;;;;;5056506;28;20303;-83
2024/01/17 12:39:35;;;;;;;0.83;0.83;;;4.50;1.00;;;;;;5055976;28;20218;-84
2024/01/17 12:42:01;;;;;;;0.80;0.80;;;4.50;1.00;;;;;;5055698;28;20174;-83
2024/01/17 12:44:30;;;;;;;0.80;0.80;;;4.60;1.00;;;;;;5056011;28;20461;-84
2024/01/17 12:47:00;;;;;;;0.90;0.90;;;4.60;1.00;;;;;;5038602;28;20201;-82
2024/01/17 12:49:27;;;;;;;0.70;0.70;;;4.70;1.00;;;;;;5039601;28;20183;-82
2024/01/17 12:51:54;;;;;;;0.77;0.77;;;4.70;1.00;;;;;;5055042;28;20177;-84
2024/01/17 12:54:21;;;;;;;0.83;0.83;;;4.80;5.60;;;;;;5053708;28;20172;-82
2024/01/17 12:56:48;;;;;;;0.80;0.80;;;4.90;3.50;;;;;;5062254;28;20234;-84